Time;durP1;ratioP1;P1;durP2;ratioP2;P2;SDS_P1;SDS_P2;PMS_P1;PMS_P2;Temp;Humidity;BMP_temperature;BMP_pressure;BME280_temperature;BME280_humidity;BME280_pressure;Samples;Min_cycle;Max_cycle;Signal;HPM_P1;HPM_P2
2021/03/04 00:00:00;;;;;;;25.10;13.80;;;6.60;96.30;;;;;;4992976;28;20421;-70
2021/03/04 00:02:25;;;;;;;24.83;14.20;;;6.50;96.30;;;;;;4992639;28;20852;-70
2021/03/04 00:04:51;;;;;;;23.20;14.50;;;6.50;96.30;;;;;;4992418;28;20173;-71
2021/03/04 00:07:16;;;;;;;28.00;15.60;;;6.50;96.30;;;;;;4991790;28;20209;-70
2021/03/04 00:09:42;;;;;;;24.57;14.00;;;6.50;96.30;;;;;;4992583;28;20174;-71
2021/03/04 00:12:08;;;;;;;26.33;13.50;;;6.50;96.30;;;;;;4992401;28;20181;-70
2021/03/04 00:14:33;;;;;;;25.63;14.73;;;6.50;96.30;;;;;;4992563;28;20182;-70
2021/03/04 00:16:59;;;;;;;26.67;15.00;;;6.40;96.30;;;;;;4991523;28;20962;-70
2021/03/04 00:19:24;;;;;;;23.43;12.77;;;6.50;96.30;;;;;;4992408;28;20192;-70
2021/03/04 00:21:50;;;;;;;31.83;14.37;;;6.50;96.30;;;;;;4992466;28;20189;-70
2021/03/04 00:24:16;;;;;;;29.13;14.80;;;6.50;96.30;;;;;;4992429;28;20646;-70
2021/03/04 00:26:41;;;;;;;24.30;14.50;;;6.50;96.30;;;;;;4991945;28;20456;-70
2021/03/04 00:29:07;;;;;;;25.47;13.77;;;6.40;96.30;;;;;;4991467;28;20225;-70
2021/03/04 00:31:32;;;;;;;23.90;13.80;;;6.40;96.30;;;;;;4990999;28;20220;-70
2021/03/04 00:33:58;;;;;;;25.77;14.03;;;6.30;96.30;;;;;;4991224;28;20235;-70
2021/03/04 00:36:24;;;;;;;28.13;14.97;;;6.30;96.30;;;;;;4992313;28;20208;-70
2021/03/04 00:38:49;;;;;;;28.33;15.00;;;6.30;96.30;;;;;;4990233;28;20181;-70
2021/03/04 00:41:15;;;;;;;25.60;14.97;;;6.20;96.30;;;;;;4992218;28;20177;-70
2021/03/04 00:43:40;;;;;;;25.43;13.30;;;6.30;96.30;;;;;;4992125;28;20182;-70
2021/03/04 00:46:05;;;;;;;23.70;15.47;;;6.30;96.30;;;;;;4992130;28;20665;-70
2021/03/04 00:48:31;;;;;;;31.73;14.60;;;6.30;96.30;;;;;;4991623;28;20177;-70
2021/03/04 00:50:57;;;;;;;25.50;14.60;;;6.30;96.30;;;;;;4992059;28;20182;-70
2021/03/04 00:53:22;;;;;;;34.27;13.90;;;6.30;96.30;;;;;;4992651;28;20225;-70
2021/03/04 00:55:48;;;;;;;29.83;15.97;;;6.40;96.30;;;;;;4992014;28;20228;-70
2021/03/04 00:58:13;;;;;;;27.80;15.90;;;6.30;96.30;;;;;;4992569;28;20247;-70
2021/03/04 05:01:27;;;;;;;40.67;24.93;;;6.70;96.30;;;;;;5493912;23;20496;-71
2021/03/04 05:03:53;;;;;;;50.33;26.93;;;6.70;96.30;;;;;;4976141;28;20421;-71
2021/03/04 05:06:19;;;;;;;41.03;25.23;;;6.80;96.30;;;;;;4976262;28;20701;-71
2021/03/04 05:08:45;;;;;;;43.50;25.23;;;6.80;96.30;;;;;;4975525;28;20182;-71
2021/03/04 05:11:10;;;;;;;41.30;23.87;;;6.90;96.30;;;;;;4976098;28;20421;-71
2021/03/04 05:13:36;;;;;;;43.97;26.47;;;6.90;96.30;;;;;;4976603;28;20197;-70
2021/03/04 05:16:01;;;;;;;45.60;26.70;;;6.90;96.30;;;;;;4970620;28;20181;-70
2021/03/04 05:18:27;;;;;;;46.60;27.00;;;7.00;96.30;;;;;;4955326;28;20186;-70
2021/03/04 05:20:53;;;;;;;43.97;25.13;;;7.00;96.30;;;;;;4970278;28;20202;-70
2021/03/04 05:23:19;;;;;;;53.97;28.33;;;6.90;96.30;;;;;;4971293;28;20190;-70
2021/03/04 05:25:44;;;;;;;42.07;24.67;;;6.80;96.30;;;;;;4969646;28;20445;-70
2021/03/04 05:28:10;;;;;;;55.90;26.87;;;6.90;96.30;;;;;;4967446;28;20191;-71
2021/03/04 05:30:36;;;;;;;41.23;25.97;;;6.90;96.30;;;;;;4963786;28;20229;-71
2021/03/04 05:33:01;;;;;;;44.63;25.30;;;6.80;96.30;;;;;;4974009;28;20469;-71
2021/03/04 05:35:27;;;;;;;40.97;24.50;;;6.70;96.30;;;;;;4974550;28;20793;-70
2021/03/04 05:37:52;;;;;;;45.30;24.67;;;6.70;96.30;;;;;;4960976;28;20655;-70
2021/03/04 05:40:18;;;;;;;49.73;25.90;;;6.70;96.30;;;;;;4961494;28;20228;-71
2021/03/04 05:42:43;;;;;;;44.30;26.33;;;6.60;96.30;;;;;;4968212;28;20182;-70
2021/03/04 05:45:12;;;;;;;42.97;26.03;;;6.50;96.30;;;;;;4961864;28;20199;-70
2021/03/04 05:47:42;;;;;;;40.97;25.83;;;6.50;96.30;;;;;;4972329;28;20202;-70
2021/03/04 05:50:08;;;;;;;45.47;26.83;;;6.50;96.30;;;;;;4975059;28;20762;-71
2021/03/04 05:52:39;;;;;;;40.00;25.17;;;6.50;96.30;;;;;;4975161;28;20769;-70
2021/03/04 05:55:05;;;;;;;48.30;26.23;;;6.50;96.30;;;;;;4975240;28;20402;-70
2021/03/04 05:57:31;;;;;;;39.40;26.30;;;6.50;96.30;;;;;;4974705;28;20445;-70
2021/03/04 05:59:57;;;;;;;40.30;25.77;;;6.50;96.30;;;;;;4976535;28;20432;-70
2021/03/04 06:02:23;;;;;;;46.70;27.27;;;6.50;96.30;;;;;;4994264;28;20220;-70
2021/03/04 06:04:49;;;;;;;41.10;25.03;;;6.50;96.30;;;;;;4981798;28;20214;-71
2021/03/04 06:07:15;;;;;;;40.50;23.77;;;6.60;96.30;;;;;;4971453;28;20473;-71
2021/03/04 06:09:41;;;;;;;46.33;26.30;;;6.50;96.30;;;;;;4972333;28;20796;-71
2021/03/04 06:12:07;;;;;;;41.60;23.87;;;6.60;96.30;;;;;;4973978;28;20206;-72
2021/03/04 06:14:34;;;;;;;42.23;26.20;;;6.60;96.30;;;;;;4971040;28;20772;-72
2021/03/04 06:17:15;;;;;;;45.23;25.47;;;6.60;96.30;;;;;;4960410;28;20430;-71
2021/03/04 06:19:50;;;;;;;50.17;25.77;;;6.60;96.30;;;;;;4968456;28;20905;-72
2021/03/04 06:22:42;;;;;;;42.83;25.57;;;6.60;96.30;;;;;;4971056;28;20838;-72
2021/03/04 06:25:10;;;;;;;42.67;24.07;;;6.60;96.30;;;;;;4966867;28;20492;-72
2021/03/04 06:27:38;;;;;;;42.30;24.63;;;6.60;96.30;;;;;;4972114;28;20461;-72
2021/03/04 06:30:07;;;;;;;45.03;22.50;;;6.60;96.30;;;;;;4973173;28;20425;-71
2021/03/04 06:32:33;;;;;;;40.27;24.17;;;6.60;96.30;;;;;;4968433;28;20429;-72
2021/03/04 06:35:09;;;;;;;38.17;24.23;;;6.60;96.30;;;;;;4974852;28;20491;-71
2021/03/04 06:37:37;;;;;;;42.60;24.07;;;6.60;96.30;;;;;;4971100;28;20725;-72
2021/03/04 06:40:05;;;;;;;47.50;25.43;;;6.60;96.30;;;;;;4968924;28;20504;-72
2021/03/04 06:42:42;;;;;;;34.30;22.47;;;6.60;96.30;;;;;;4973179;28;20956;-71
2021/03/04 06:45:08;;;;;;;36.50;22.30;;;6.50;96.30;;;;;;4968585;28;20421;-71
2021/03/04 06:47:34;;;;;;;42.43;23.60;;;6.60;96.30;;;;;;4970501;28;20471;-73
2021/03/04 06:49:59;;;;;;;34.93;21.83;;;6.60;96.30;;;;;;4969649;28;20504;-72
2021/03/04 06:52:32;;;;;;;44.97;22.50;;;6.60;96.30;;;;;;4974029;28;20221;-71
2021/03/04 06:55:14;;;;;;;41.23;22.87;;;6.60;96.30;;;;;;4968933;28;20643;-72
2021/03/04 06:57:40;;;;;;;43.97;22.87;;;6.60;96.30;;;;;;4960588;28;20430;-72
2021/03/04 07:00:19;;;;;;;38.10;23.20;;;6.50;96.30;;;;;;4959612;28;20429;-72
2021/03/04 07:02:56;;;;;;;40.17;23.80;;;6.50;96.30;;;;;;4968458;28;20278;-74
2021/03/04 07:05:23;;;;;;;47.73;24.50;;;6.40;96.30;;;;;;4957026;28;20453;-73
2021/03/04 07:07:56;;;;;;;41.20;23.40;;;6.30;96.30;;;;;;4963278;28;20462;-72
2021/03/04 07:10:26;;;;;;;43.73;23.27;;;6.20;96.30;;;;;;4969726;28;20418;-71
2021/03/04 07:12:52;;;;;;;42.97;24.17;;;6.10;96.30;;;;;;4968304;28;20943;-72
2021/03/04 07:15:19;;;;;;;46.50;25.03;;;6.10;96.30;;;;;;4971205;28;20406;-71
2021/03/04 07:17:50;;;;;;;39.07;24.30;;;6.20;96.30;;;;;;4969922;28;20248;-72
2021/03/04 07:20:18;;;;;;;38.10;24.30;;;6.30;96.30;;;;;;4965788;28;20798;-72
2021/03/04 07:22:45;;;;;;;41.17;24.70;;;6.40;96.30;;;;;;4961088;28;20423;-71
2021/03/04 07:25:13;;;;;;;41.57;22.00;;;6.60;96.30;;;;;;4969948;28;20499;-71
2021/03/04 07:27:39;;;;;;;42.03;24.87;;;6.70;96.30;;;;;;4969482;28;20556;-72
2021/03/04 07:30:06;;;;;;;42.83;24.73;;;6.80;96.30;;;;;;4971565;28;20421;-71
2021/03/04 07:32:33;;;;;;;52.40;25.43;;;7.00;96.30;;;;;;4966443;28;21094;-72
2021/03/04 07:34:59;;;;;;;40.93;24.07;;;7.10;96.30;;;;;;4958241;28;20914;-71
2021/03/04 07:37:24;;;;;;;42.40;23.00;;;7.30;96.30;;;;;;4962506;28;20517;-72
2021/03/04 07:39:58;;;;;;;48.50;25.10;;;7.50;96.30;;;;;;4960103;28;20783;-73
2021/03/04 07:42:25;;;;;;;44.20;23.27;;;7.60;96.30;;;;;;4964452;28;20289;-73
2021/03/04 07:44:51;;;;;;;39.07;23.60;;;7.70;96.30;;;;;;4964665;28;20426;-72
2021/03/04 07:47:27;;;;;;;44.10;23.70;;;7.80;96.30;;;;;;4965536;28;20469;-72
2021/03/04 07:49:53;;;;;;;43.57;25.07;;;7.80;96.30;;;;;;4972629;28;20405;-72
2021/03/04 07:52:24;;;;;;;53.00;23.90;;;7.90;96.30;;;;;;4963342;28;20543;-72
2021/03/04 07:54:51;;;;;;;53.20;24.67;;;8.00;96.30;;;;;;4954028;28;20933;-72
2021/03/04 07:57:19;;;;;;;49.87;24.17;;;8.00;96.30;;;;;;4955552;28;20850;-72
2021/03/04 07:59:58;;;;;;;45.33;24.00;;;8.10;96.30;;;;;;4953858;28;20485;-73
2021/03/04 08:02:35;;;;;;;44.90;24.33;;;8.20;96.30;;;;;;4969488;28;20599;-72
2021/03/04 08:05:18;;;;;;;36.50;22.70;;;8.30;96.30;;;;;;4973170;28;20499;-72
2021/03/04 08:07:48;;;;;;;39.97;23.20;;;8.40;96.30;;;;;;4968055;28;20450;-71
2021/03/04 08:10:24;;;;;;;37.30;23.57;;;8.40;96.30;;;;;;4957947;28;20434;-71
2021/03/04 08:12:51;;;;;;;43.10;22.90;;;8.50;96.30;;;;;;4957917;28;20414;-71
2021/03/04 08:15:19;;;;;;;39.07;24.17;;;8.50;96.30;;;;;;4957937;28;20492;-71
2021/03/04 08:17:45;;;;;;;45.57;23.60;;;8.90;96.30;;;;;;4957304;28;20418;-72
2021/03/04 08:20:17;;;;;;;37.10;23.07;;;9.20;96.30;;;;;;4973021;28;20444;-71
2021/03/04 08:22:48;;;;;;;41.90;23.40;;;9.40;96.30;;;;;;4977006;28;20257;-71
2021/03/04 08:25:30;;;;;;;39.80;23.70;;;9.40;96.30;;;;;;4976948;28;20393;-72
2021/03/04 08:27:58;;;;;;;45.67;24.07;;;9.30;96.30;;;;;;4976231;28;20949;-71
2021/03/04 08:30:37;;;;;;;37.73;23.50;;;9.30;96.30;;;;;;4976725;28;20417;-71
2021/03/04 08:33:08;;;;;;;39.30;23.70;;;9.40;96.30;;;;;;4977016;28;20932;-71
2021/03/04 08:35:40;;;;;;;45.20;24.33;;;9.50;96.30;;;;;;4976485;28;20406;-71
2021/03/04 08:38:11;;;;;;;36.27;22.80;;;9.50;96.30;;;;;;4976163;28;20448;-71
2021/03/04 08:40:53;;;;;;;57.47;22.93;;;9.50;96.30;;;;;;4976296;28;20441;-71
2021/03/04 08:43:24;;;;;;;41.07;24.53;;;9.60;96.30;;;;;;4976465;28;20972;-71
2021/03/04 08:45:52;;;;;;;45.47;23.23;;;9.50;96.30;;;;;;4975426;28;20425;-71
2021/03/04 08:48:17;;;;;;;38.90;23.70;;;9.40;96.30;;;;;;4976077;28;20424;-71
2021/03/04 08:50:48;;;;;;;39.07;25.40;;;9.40;96.30;;;;;;4976414;28;20429;-72
2021/03/04 08:53:19;;;;;;;47.47;26.50;;;9.40;96.30;;;;;;4976281;28;20155;-71
2021/03/04 08:55:56;;;;;;;36.70;23.57;;;9.80;96.30;;;;;;4976838;28;20758;-71
2021/03/04 08:58:23;;;;;;;44.67;26.37;;;10.20;96.30;;;;;;4975848;28;20504;-71
2021/03/04 09:00:51;;;;;;;40.33;26.00;;;10.70;96.30;;;;;;4972689;28;20465;-71
2021/03/04 09:03:18;;;;;;;45.57;25.30;;;10.90;96.30;;;;;;4969917;28;20959;-71
2021/03/04 09:05:43;;;;;;;50.97;26.70;;;11.10;96.30;;;;;;4971276;28;20426;-72
2021/03/04 09:08:11;;;;;;;58.47;28.60;;;11.40;96.00;;;;;;4957145;28;20812;-72
2021/03/04 09:10:49;;;;;;;46.27;26.10;;;10.90;96.30;;;;;;4956821;28;20213;-72
2021/03/04 09:13:19;;;;;;;55.00;26.67;;;10.60;96.30;;;;;;4956548;28;20886;-71
2021/03/04 09:15:49;;;;;;;54.70;26.67;;;10.50;96.30;;;;;;4956512;29;20415;-72
2021/03/04 09:18:15;;;;;;;43.53;25.90;;;10.60;96.30;;;;;;4956219;28;20760;-71
2021/03/04 09:20:42;;;;;;;50.97;26.77;;;10.90;96.30;;;;;;4964404;28;20436;-72
2021/03/04 09:23:08;;;;;;;49.37;26.90;;;11.40;96.30;;;;;;4993572;28;20405;-71
2021/03/04 09:25:33;;;;;;;41.43;27.10;;;11.60;96.30;;;;;;4975620;28;21085;-72
2021/03/04 09:27:59;;;;;;;46.97;26.80;;;11.60;96.30;;;;;;4973894;28;20224;-71
2021/03/04 09:30:30;;;;;;;46.87;26.27;;;11.50;96.30;;;;;;4975515;28;20206;-71
2021/03/04 09:32:56;;;;;;;60.20;28.47;;;10.90;96.30;;;;;;4970091;28;20657;-72
2021/03/04 09:35:22;;;;;;;51.73;28.40;;;10.60;96.30;;;;;;4970064;28;20497;-71
2021/03/04 09:37:48;;;;;;;65.00;29.53;;;10.50;96.30;;;;;;4955620;29;20592;-71
2021/03/04 09:40:28;;;;;;;54.93;29.10;;;10.30;96.30;;;;;;4968824;28;20192;-71
2021/03/04 09:42:54;;;;;;;58.93;29.13;;;10.40;96.30;;;;;;4958582;28;20273;-72
2021/03/04 09:45:20;;;;;;;49.90;28.33;;;11.00;96.30;;;;;;4955706;28;20501;-72
2021/03/04 09:47:48;;;;;;;52.17;29.73;;;11.50;96.30;;;;;;4955310;29;20502;-72
2021/03/04 09:50:25;;;;;;;52.87;28.70;;;11.70;96.10;;;;;;4955988;28;20825;-71
2021/03/04 09:53:02;;;;;;;43.50;27.10;;;12.10;96.30;;;;;;4957675;28;20406;-72
2021/03/04 09:55:36;;;;;;;48.47;27.87;;;12.40;94.00;;;;;;4964814;28;20421;-72
2021/03/04 09:58:13;;;;;;;51.97;28.83;;;12.50;93.20;;;;;;4963577;28;20439;-71
2021/03/04 10:00:39;;;;;;;54.63;29.57;;;12.00;90.90;;;;;;4964674;28;20449;-72
2021/03/04 10:03:13;;;;;;;58.00;28.73;;;11.70;93.70;;;;;;4970007;28;20433;-72
2021/03/04 10:05:46;;;;;;;53.83;30.40;;;11.50;94.60;;;;;;4959853;28;20462;-71
2021/03/04 10:08:12;;;;;;;50.70;29.50;;;11.20;95.00;;;;;;4970695;28;20462;-71
2021/03/04 10:10:37;;;;;;;56.70;31.40;;;11.10;96.30;;;;;;4975084;28;20791;-70
2021/03/04 10:13:03;;;;;;;51.03;30.37;;;11.10;95.80;;;;;;4975049;28;20424;-69
2021/03/04 10:15:32;;;;;;;49.80;30.10;;;11.50;96.30;;;;;;4974618;28;20213;-70
2021/03/04 10:18:01;;;;;;;57.47;31.30;;;12.10;94.90;;;;;;4971216;28;20178;-70
2021/03/04 10:20:26;;;;;;;54.63;31.37;;;12.30;94.30;;;;;;4955334;28;20415;-70
2021/03/04 10:22:52;;;;;;;61.23;33.20;;;12.40;92.50;;;;;;4955386;28;20461;-70
2021/03/04 10:25:18;;;;;;;59.30;32.40;;;12.30;93.50;;;;;;4955461;29;20492;-70
2021/03/04 10:27:44;;;;;;;55.17;33.57;;;12.40;93.40;;;;;;4954708;28;20655;-72
2021/03/04 10:30:12;;;;;;;54.13;32.20;;;12.20;92.70;;;;;;4954997;28;20415;-72
2021/03/04 10:32:38;;;;;;;53.73;31.50;;;11.90;94.10;;;;;;4955079;28;20313;-71
2021/03/04 10:35:12;;;;;;;57.17;31.60;;;11.80;92.90;;;;;;4957035;28;20509;-71
2021/03/04 10:37:39;;;;;;;60.67;33.77;;;11.50;93.20;;;;;;4973963;28;20546;-71
2021/03/04 10:40:06;;;;;;;56.97;34.10;;;11.40;94.50;;;;;;4966769;28;20433;-71
2021/03/04 10:42:31;;;;;;;53.00;31.93;;;11.30;95.50;;;;;;4989679;28;20432;-71
2021/03/04 10:44:59;;;;;;;57.77;33.13;;;11.40;96.00;;;;;;4976555;28;20419;-71
2021/03/04 10:47:29;;;;;;;58.93;33.50;;;11.60;94.50;;;;;;4954487;28;20282;-71
2021/03/04 10:49:55;;;;;;;63.37;33.03;;;11.40;95.30;;;;;;4955384;28;20395;-71
2021/03/04 10:52:22;;;;;;;61.33;32.40;;;11.30;95.80;;;;;;4954752;29;21033;-71
2021/03/04 10:54:47;;;;;;;56.70;32.80;;;11.40;94.70;;;;;;4954980;28;20413;-71
2021/03/04 10:57:13;;;;;;;67.27;32.27;;;11.20;95.10;;;;;;4954376;29;20505;-71
2021/03/04 10:59:38;;;;;;;61.43;35.97;;;11.10;96.10;;;;;;4991076;28;20177;-71
2021/03/04 11:02:04;;;;;;;63.70;33.03;;;10.80;96.30;;;;;;4993304;28;20209;-71
2021/03/04 11:04:30;;;;;;;63.87;34.27;;;10.80;96.30;;;;;;4984284;28;20614;-71
2021/03/04 11:06:55;;;;;;;66.70;34.60;;;10.60;96.30;;;;;;4959138;28;20325;-72
2021/03/04 11:09:20;;;;;;;60.63;33.20;;;10.60;96.30;;;;;;4972210;28;20582;-71
2021/03/04 11:11:46;;;;;;;54.50;33.23;;;10.50;96.30;;;;;;4968895;28;20282;-71
2021/03/04 11:14:11;;;;;;;48.70;28.87;;;10.50;96.30;;;;;;4965989;28;20218;-71
2021/03/04 11:16:37;;;;;;;49.73;31.20;;;10.50;96.30;;;;;;4970949;28;20182;-71
2021/03/04 11:19:04;;;;;;;51.00;31.50;;;10.60;96.30;;;;;;4962198;28;20568;-71
2021/03/04 11:21:30;;;;;;;53.20;33.60;;;10.60;96.30;;;;;;4968462;28;20240;-71
2021/03/04 11:23:55;;;;;;;59.77;34.40;;;10.60;96.30;;;;;;4964192;28;20414;-71
2021/03/04 11:26:20;;;;;;;60.50;33.00;;;10.60;96.30;;;;;;4972704;28;20610;-71
2021/03/04 11:28:46;;;;;;;56.93;31.27;;;10.80;96.30;;;;;;4969547;28;20181;-72
2021/03/04 11:31:11;;;;;;;59.30;33.40;;;10.90;96.30;;;;;;4963020;28;20203;-71
2021/03/04 11:33:37;;;;;;;62.20;32.23;;;11.10;96.30;;;;;;4968447;28;20186;-72
2021/03/04 11:36:03;;;;;;;68.03;33.43;;;11.30;96.30;;;;;;4972024;28;20276;-72
2021/03/04 11:38:28;;;;;;;57.70;33.67;;;11.00;96.30;;;;;;4964919;28;20186;-71
2021/03/04 11:40:54;;;;;;;57.23;32.40;;;10.80;96.30;;;;;;4969811;28;20202;-71
2021/03/04 11:43:19;;;;;;;54.70;31.43;;;10.70;96.30;;;;;;4961854;28;20552;-71
2021/03/04 11:45:45;;;;;;;52.83;32.20;;;10.80;96.30;;;;;;4964726;28;20232;-72
2021/03/04 11:48:10;;;;;;;59.80;34.70;;;10.80;96.30;;;;;;4965320;28;20208;-71
2021/03/04 11:50:36;;;;;;;55.77;31.73;;;11.10;96.30;;;;;;4963697;28;20198;-71
2021/03/04 11:53:01;;;;;;;60.67;32.53;;;11.20;96.30;;;;;;4960814;28;20179;-72
2021/03/04 11:55:27;;;;;;;50.33;30.87;;;11.20;96.30;;;;;;4963123;28;20185;-72
2021/03/04 11:57:52;;;;;;;53.00;33.20;;;11.30;96.30;;;;;;4965118;28;20190;-72
2021/03/04 12:00:18;;;;;;;58.10;31.90;;;11.60;96.30;;;;;;4966018;28;20183;-72
2021/03/04 12:02:44;;;;;;;53.83;29.03;;;12.00;96.30;;;;;;4963587;28;20189;-72
2021/03/04 12:05:10;;;;;;;46.27;26.57;;;11.70;96.10;;;;;;4968308;28;20304;-72
2021/03/04 12:07:36;;;;;;;49.80;26.83;;;11.60;96.10;;;;;;4974818;28;20210;-72
2021/03/04 12:10:01;;;;;;;37.77;24.83;;;11.50;96.30;;;;;;4990470;28;20479;-73
2021/03/04 12:12:27;;;;;;;46.87;25.70;;;11.50;96.00;;;;;;4957914;28;20683;-71
2021/03/04 12:14:52;;;;;;;50.90;26.63;;;11.40;96.30;;;;;;4952452;29;20179;-72
2021/03/04 12:17:18;;;;;;;52.77;26.43;;;11.10;96.30;;;;;;4960459;28;20194;-72
2021/03/04 12:19:43;;;;;;;52.70;25.17;;;11.20;96.30;;;;;;4953656;28;20603;-72
2021/03/04 12:22:09;;;;;;;38.43;26.20;;;10.80;96.30;;;;;;4961848;28;20601;-72
2021/03/04 12:24:35;;;;;;;38.23;26.23;;;10.80;96.30;;;;;;4972293;28;20181;-71
2021/03/04 12:27:01;;;;;;;50.50;28.33;;;10.80;96.30;;;;;;4969695;28;20240;-72
2021/03/04 12:29:26;;;;;;;43.93;27.50;;;10.70;96.30;;;;;;4972900;28;20414;-72
2021/03/04 12:31:52;;;;;;;55.53;28.10;;;10.60;96.30;;;;;;4972678;28;20677;-73
2021/03/04 12:34:18;;;;;;;49.80;27.97;;;10.30;96.30;;;;;;4956329;28;20259;-72
2021/03/04 12:36:44;;;;;;;50.83;30.50;;;10.20;96.30;;;;;;4966364;28;20253;-71
2021/03/04 12:39:10;;;;;;;53.87;28.70;;;10.20;96.30;;;;;;4953116;28;20242;-72
2021/03/04 12:41:36;;;;;;;45.63;28.83;;;10.10;96.30;;;;;;4953001;28;20441;-71
2021/03/04 12:44:01;;;;;;;46.03;28.17;;;10.20;96.30;;;;;;4953503;28;20415;-71
2021/03/04 12:46:27;;;;;;;48.30;27.20;;;10.40;96.30;;;;;;4955971;28;20206;-72
2021/03/04 12:48:53;;;;;;;45.57;27.40;;;10.50;96.30;;;;;;4971856;28;20261;-73
2021/03/04 12:51:19;;;;;;;47.23;29.10;;;10.40;96.30;;;;;;4967527;28;20218;-71
2021/03/04 12:53:44;;;;;;;55.80;30.33;;;10.10;96.30;;;;;;4953448;28;20186;-71
2021/03/04 12:56:10;;;;;;;44.60;28.73;;;9.80;96.30;;;;;;4968145;28;20433;-71
2021/03/04 12:58:35;;;;;;;56.83;29.43;;;9.70;96.30;;;;;;4958760;28;20244;-71
2021/03/04 13:01:01;;;;;;;51.30;32.17;;;9.50;96.30;;;;;;4959459;28;20210;-71
2021/03/04 13:03:26;;;;;;;53.27;31.87;;;9.20;96.30;;;;;;4966735;28;20262;-71
2021/03/04 13:05:53;;;;;;;43.50;26.20;;;8.90;96.30;;;;;;4958077;28;20174;-72
2021/03/04 13:08:19;;;;;;;48.57;29.40;;;8.60;96.30;;;;;;4972106;28;20346;-72
2021/03/04 13:10:44;;;;;;;59.60;33.77;;;8.40;96.30;;;;;;4956766;28;20517;-72
2021/03/04 13:13:10;;;;;;;54.50;31.40;;;8.20;96.30;;;;;;4956783;28;20632;-72
2021/03/04 13:15:35;;;;;;;55.63;32.70;;;8.10;96.30;;;;;;4957629;28;20306;-71
2021/03/04 13:18:01;;;;;;;54.90;31.90;;;8.10;96.30;;;;;;4974725;28;20193;-72
2021/03/04 13:20:26;;;;;;;47.10;30.47;;;7.90;96.30;;;;;;4977375;28;20186;-72
2021/03/04 13:22:52;;;;;;;55.40;32.93;;;7.80;96.30;;;;;;4960033;28;20190;-71
2021/03/04 13:25:17;;;;;;;59.03;33.80;;;7.70;96.30;;;;;;4974945;28;20197;-72
2021/03/04 13:27:43;;;;;;;56.87;32.53;;;7.60;96.30;;;;;;4961143;28;20238;-71
2021/03/04 13:30:09;;;;;;;56.93;33.57;;;7.60;96.30;;;;;;4958055;28;20175;-73
2021/03/04 13:32:34;;;;;;;58.47;34.00;;;7.50;96.30;;;;;;4966527;28;20294;-69
2021/03/04 13:35:00;;;;;;;60.80;32.97;;;7.30;96.30;;;;;;4957060;28;20183;-70
2021/03/04 13:37:25;;;;;;;61.10;30.60;;;7.30;96.30;;;;;;4968992;28;20297;-67
2021/03/04 13:39:51;;;;;;;53.73;29.80;;;7.20;96.30;;;;;;4962476;28;20183;-68
2021/03/04 13:42:16;;;;;;;55.90;30.60;;;7.10;96.30;;;;;;4966279;28;20199;-68
2021/03/04 13:44:42;;;;;;;45.30;29.43;;;7.10;96.30;;;;;;4956135;28;20666;-68
2021/03/04 13:47:07;;;;;;;49.93;29.13;;;7.10;96.30;;;;;;4958892;28;20252;-67
2021/03/04 13:49:33;;;;;;;48.10;29.50;;;7.00;96.30;;;;;;4964497;28;20220;-68
2021/03/04 13:51:58;;;;;;;57.73;31.50;;;7.00;96.30;;;;;;4971866;28;20845;-69
2021/03/04 13:54:24;;;;;;;57.87;29.67;;;7.00;96.30;;;;;;4968306;28;20258;-72
2021/03/04 13:56:49;;;;;;;47.20;27.23;;;7.00;96.30;;;;;;4971349;28;20195;-70
2021/03/04 13:59:15;;;;;;;50.17;27.90;;;7.10;96.30;;;;;;4966887;28;20630;-69
2021/03/04 14:01:40;;;;;;;48.40;27.33;;;7.00;96.30;;;;;;4970506;28;20768;-69
2021/03/04 14:04:06;;;;;;;42.03;27.70;;;7.00;96.30;;;;;;4962569;28;20187;-71
2021/03/04 14:06:32;;;;;;;44.97;26.47;;;7.00;96.30;;;;;;4959250;28;20202;-72
2021/03/04 14:08:57;;;;;;;55.13;27.90;;;7.10;96.30;;;;;;4962631;28;20815;-71
2021/03/04 14:11:23;;;;;;;46.87;26.57;;;7.10;96.30;;;;;;4967443;28;20477;-71
2021/03/04 14:13:49;;;;;;;55.00;27.97;;;7.20;96.30;;;;;;4969241;28;20186;-72
2021/03/04 14:16:15;;;;;;;43.90;27.50;;;7.20;96.30;;;;;;4953627;28;20194;-72
2021/03/04 14:18:41;;;;;;;39.47;22.60;;;7.20;96.30;;;;;;4968408;28;20304;-73
2021/03/04 14:21:07;;;;;;;44.90;24.50;;;7.10;96.30;;;;;;4963046;28;20541;-73
2021/03/04 14:23:32;;;;;;;36.93;22.57;;;7.10;96.30;;;;;;4968823;28;20186;-73
2021/03/04 14:25:59;;;;;;;44.57;24.97;;;7.10;96.30;;;;;;4962134;28;20445;-73
2021/03/04 14:28:25;;;;;;;39.17;24.27;;;7.10;96.30;;;;;;4972614;28;20601;-74
2021/03/04 14:30:51;;;;;;;41.53;22.13;;;7.00;96.30;;;;;;4965996;28;20851;-73
2021/03/04 14:33:18;;;;;;;38.43;23.13;;;7.00;96.30;;;;;;4967455;28;20429;-73
2021/03/04 14:35:44;;;;;;;41.83;23.70;;;7.10;96.30;;;;;;4965109;28;20191;-73
2021/03/04 14:38:09;;;;;;;43.90;24.40;;;7.20;96.30;;;;;;4974121;28;20414;-73
2021/03/04 14:40:35;;;;;;;37.77;26.60;;;7.20;96.30;;;;;;4973043;28;20479;-74
2021/03/04 14:43:00;;;;;;;40.53;24.67;;;7.10;96.30;;;;;;4970223;28;20198;-73
2021/03/04 14:45:26;;;;;;;31.33;22.23;;;7.10;96.30;;;;;;4961058;28;20182;-73
2021/03/04 14:47:51;;;;;;;42.97;24.67;;;7.00;96.30;;;;;;4973899;28;20194;-73
2021/03/04 14:50:17;;;;;;;47.37;26.57;;;7.00;96.30;;;;;;4962154;28;20183;-74
2021/03/04 14:52:42;;;;;;;44.40;24.07;;;7.00;96.30;;;;;;4954885;29;20166;-72
2021/03/04 14:55:09;;;;;;;44.47;25.23;;;7.10;96.30;;;;;;4954990;28;20560;-72
2021/03/04 14:57:34;;;;;;;41.83;25.23;;;7.10;96.30;;;;;;4954433;28;20179;-72
2021/03/04 15:00:00;;;;;;;37.33;25.30;;;7.20;96.30;;;;;;4962997;28;20477;-73
2021/03/04 15:02:26;;;;;;;49.83;27.90;;;7.30;96.30;;;;;;4955172;28;20214;-73
2021/03/04 15:04:51;;;;;;;42.30;25.57;;;7.30;96.30;;;;;;4965148;28;20254;-76
2021/03/04 15:07:17;;;;;;;48.93;27.90;;;7.20;96.30;;;;;;4965664;28;20474;-72
2021/03/04 15:09:42;;;;;;;53.00;28.07;;;7.10;96.30;;;;;;4973943;28;20182;-72
2021/03/04 15:12:09;;;;;;;42.87;26.87;;;7.10;96.30;;;;;;4964699;28;20205;-74
2021/03/04 15:14:34;;;;;;;51.37;29.00;;;7.10;96.30;;;;;;4965084;28;20186;-72
2021/03/04 15:17:00;;;;;;;45.90;27.27;;;7.10;96.30;;;;;;4970898;28;20492;-74
2021/03/04 15:19:26;;;;;;;47.57;26.37;;;7.00;96.30;;;;;;4974234;28;20185;-72
2021/03/04 15:21:52;;;;;;;51.63;27.63;;;7.00;96.30;;;;;;4971239;28;20640;-72
2021/03/04 15:24:17;;;;;;;40.13;26.60;;;7.00;96.30;;;;;;4968740;28;20524;-72
2021/03/04 15:26:43;;;;;;;44.37;28.77;;;7.00;96.30;;;;;;4964866;28;20221;-72
2021/03/04 15:29:09;;;;;;;41.70;26.17;;;7.00;96.30;;;;;;4966959;28;20201;-72
2021/03/04 15:31:35;;;;;;;38.07;25.27;;;7.00;96.30;;;;;;4962321;28;20277;-73
2021/03/04 15:34:01;;;;;;;51.07;30.20;;;7.00;96.30;;;;;;4959071;28;20849;-73
2021/03/04 15:36:27;;;;;;;61.33;31.93;;;6.90;96.30;;;;;;4962077;28;20457;-72
2021/03/04 15:38:53;;;;;;;53.77;31.07;;;6.80;96.30;;;;;;4965217;28;20188;-74
2021/03/04 15:41:19;;;;;;;57.33;30.30;;;6.80;96.30;;;;;;4964756;28;20458;-72
2021/03/04 15:43:44;;;;;;;65.97;34.13;;;6.70;96.30;;;;;;4963395;28;20635;-71
2021/03/04 15:46:11;;;;;;;60.93;34.00;;;6.70;96.30;;;;;;4967469;28;20229;-71
2021/03/04 15:48:37;;;;;;;55.63;33.13;;;6.60;96.30;;;;;;4968116;28;20190;-71
2021/03/04 15:51:04;;;;;;;149.50;37.70;;;6.50;96.30;;;;;;4969264;28;20968;-70
2021/03/04 15:53:30;;;;;;;165.70;33.93;;;6.30;96.30;;;;;;4961768;28;20952;-69
2021/03/04 15:55:55;;;;;;;177.27;30.23;;;6.10;96.30;;;;;;4965539;28;20453;-67
2021/03/04 15:58:21;;;;;;;206.90;31.20;;;5.90;96.30;;;;;;4964546;28;20213;-67
2021/03/04 16:00:46;;;;;;;425.53;34.37;;;5.70;96.30;;;;;;4959636;28;20238;-68
2021/03/04 16:03:12;;;;;;;549.00;35.13;;;5.60;96.30;;;;;;4968007;28;20190;-68
2021/03/04 16:05:37;;;;;;;521.50;33.90;;;5.50;96.30;;;;;;4961901;28;20517;-68
2021/03/04 16:08:03;;;;;;;472.90;33.20;;;5.50;96.30;;;;;;4965814;28;20778;-67
2021/03/04 16:10:29;;;;;;;195.23;24.00;;;5.30;96.30;;;;;;4959756;28;20191;-68
2021/03/04 16:12:54;;;;;;;182.03;29.23;;;5.00;96.30;;;;;;4970840;28;20504;-67
2021/03/04 16:15:20;;;;;;;222.73;29.50;;;4.90;96.30;;;;;;4967243;28;20932;-67
2021/03/04 16:17:46;;;;;;;217.40;27.90;;;4.60;96.30;;;;;;4965661;28;20193;-69
2021/03/04 16:20:13;;;;;;;150.20;27.07;;;4.50;96.30;;;;;;4957443;28;20190;-69
2021/03/04 16:22:41;;;;;;;57.53;27.13;;;4.50;96.30;;;;;;4958847;28;20426;-69
2021/03/04 16:25:09;;;;;;;45.93;27.87;;;4.40;96.30;;;;;;4961534;28;20449;-69
2021/03/04 16:27:35;;;;;;;66.77;28.17;;;4.30;96.30;;;;;;4966555;28;20516;-70
2021/03/04 16:30:00;;;;;;;82.83;29.13;;;4.30;96.30;;;;;;4957701;28;20462;-70
2021/03/04 16:32:26;;;;;;;47.73;27.10;;;4.20;96.30;;;;;;4970375;28;20205;-70